Time;durP1;ratioP1;P1;durP2;ratioP2;P2;SDS_P1;SDS_P2;PMS_P1;PMS_P2;Temp;Humidity;BMP_temperature;BMP_pressure;BME280_temperature;BME280_humidity;BME280_pressure;Samples;Min_cycle;Max_cycle;Signal;HPM_P1;HPM_P2
2023/09/12 00:01:32;;;;;;;;;;;;;;;25.49;38.93;101200.25;5075705;28;19916;-92
2023/09/12 00:03:58;;;;;;;;;;;;;;;25.45;39.02;101202.84;5070907;28;19934;-93
2023/09/12 00:06:23;;;;;;;;;;;;;;;25.42;39.03;101200.78;5074662;28;19920;-93
2023/09/12 00:08:49;;;;;;;;;;;;;;;25.41;39.12;101206.63;5076101;28;20406;-93
2023/09/12 00:11:14;;;;;;;;;;;;;;;25.38;39.05;101208.09;5075246;28;19950;-93
2023/09/12 00:13:41;;;;;;;;;;;;;;;25.36;39.19;101202.16;5082032;28;19924;-92
2023/09/12 00:16:07;;;;;;;;;;;;;;;25.31;39.13;101210.56;5079343;28;19931;-93
2023/09/12 00:18:34;;;;;;;;;;;;;;;25.24;39.32;101218.53;5075259;28;19924;-93
2023/09/12 00:21:00;;;;;;;;;;;;;;;25.19;39.32;101218.75;5077969;28;20395;-92
2023/09/12 00:23:26;;;;;;;;;;;;;;;25.14;39.16;101213.50;5082421;28;20270;-93
2023/09/12 00:25:51;;;;;;;;;;;;;;;25.10;39.29;101215.28;5075217;28;19927;-94
2023/09/12 00:28:17;;;;;;;;;;;;;;;25.08;39.18;101215.59;5075642;28;20126;-92
2023/09/12 00:30:43;;;;;;;;;;;;;;;25.04;39.33;101213.88;5074723;28;19970;-94
2023/09/12 00:33:08;;;;;;;;;;;;;;;24.99;39.44;101201.97;5078054;28;19969;-92
2023/09/12 00:35:33;;;;;;;;;;;;;;;24.97;39.38;101204.22;5074044;28;20065;-93
2023/09/12 00:37:59;;;;;;;;;;;;;;;24.95;39.36;101206.47;5075741;28;19951;-93
2023/09/12 00:40:25;;;;;;;;;;;;;;;24.92;39.35;101204.41;5079045;28;20015;-92
2023/09/12 00:42:50;;;;;;;;;;;;;;;24.89;39.34;101207.81;5076311;28;19928;-93
2023/09/12 00:45:16;;;;;;;;;;;;;;;24.83;39.70;101209.16;5072519;28;19924;-93
2023/09/12 00:47:41;;;;;;;;;;;;;;;24.77;39.68;101205.00;5074593;28;19916;-92
2023/09/12 00:50:08;;;;;;;;;;;;;;;24.75;39.72;101200.97;5075032;28;20372;-92
2023/09/12 00:52:36;;;;;;;;;;;;;;;24.74;39.76;101205.66;5085758;28;19928;-93
2023/09/12 00:55:02;;;;;;;;;;;;;;;24.73;39.72;101200.50;5093226;28;20006;-93
2023/09/12 00:57:28;;;;;;;;;;;;;;;24.69;39.68;101198.44;5079935;28;19963;-91
2023/09/12 00:59:53;;;;;;;;;;;;;;;24.66;39.82;101206.53;5082376;28;19931;-93
2023/09/12 01:02:22;;;;;;;;;;;;;;;24.61;40.07;101212.22;5070696;28;19916;-92
2023/09/12 01:04:48;;;;;;;;;;;;;;;24.57;39.93;101205.75;5078084;28;19920;-93
2023/09/12 01:07:14;;;;;;;;;;;;;;;24.55;39.80;101208.84;5077442;28;19920;-92
2023/09/12 01:09:40;;;;;;;;;;;;;;;24.53;40.03;101215.78;5076610;28;20423;-93
2023/09/12 01:12:06;;;;;;;;;;;;;;;24.50;39.90;101211.78;5069788;28;19931;-92
2023/09/12 01:14:31;;;;;;;;;;;;;;;24.46;39.72;101205.38;5073992;28;19916;-92
2023/09/12 01:16:57;;;;;;;;;;;;;;;24.43;39.89;101211.50;5073227;28;19927;-92
2023/09/12 01:19:23;;;;;;;;;;;;;;;24.40;39.96;101207.47;5072065;28;19931;-93
2023/09/12 01:21:51;;;;;;;;;;;;;;;24.37;40.05;101210.06;5075502;28;21522;-93
2023/09/12 01:24:49;;;;;;;;;;;;;;;24.32;40.03;101216.53;5075814;28;20178;-92
2023/09/12 01:27:14;;;;;;;;;;;;;;;24.27;40.10;101216.69;5054361;28;20368;-92
2023/09/12 01:29:40;;;;;;;;;;;;;;;24.23;40.10;101213.00;5074944;28;19920;-91
2023/09/12 01:32:06;;;;;;;;;;;;;;;24.18;40.18;101215.13;5073184;28;19971;-93
2023/09/12 01:34:31;;;;;;;;;;;;;;;24.15;40.04;101216.56;5072069;28;19985;-93
2023/09/12 01:36:57;;;;;;;;;;;;;;;24.13;40.25;101216.09;5070844;28;20169;-93
2023/09/12 01:39:22;;;;;;;;;;;;;;;24.13;40.31;101224.31;5078944;28;19924;-93
2023/09/12 01:41:48;;;;;;;;;;;;;;;24.09;40.23;101217.91;5076097;28;20403;-92
2023/09/12 01:44:14;;;;;;;;;;;;;;;24.07;40.53;101220.97;5072012;28;20001;-93
2023/09/12 01:46:39;;;;;;;;;;;;;;;24.03;40.33;101213.72;5073055;28;20396;-92
2023/09/12 01:49:07;;;;;;;;;;;;;;;24.02;40.29;101215.66;5075199;28;20248;-92
2023/09/12 01:51:33;;;;;;;;;;;;;;;24.03;40.09;101221.94;5072121;28;19920;-92
2023/09/12 01:54:00;;;;;;;;;;;;;;;24.02;40.08;101223.88;5074258;28;19922;-93
2023/09/12 01:56:28;;;;;;;;;;;;;;;24.00;40.09;101226.13;5081937;28;19985;-93
2023/09/12 01:58:54;;;;;;;;;;;;;;;23.99;40.10;101224.53;5074394;28;19930;-93
2023/09/12 02:01:20;;;;;;;;;;;;;;;23.99;40.03;101223.72;5073862;28;20367;-92
2023/09/12 02:03:45;;;;;;;;;;;;;;;23.97;40.22;101220.50;5074751;28;19920;-94
2023/09/12 02:06:10;;;;;;;;;;;;;;;23.95;40.00;101223.56;5074264;28;19955;-93
2023/09/12 02:08:38;;;;;;;;;;;;;;;23.93;40.20;101217.63;5073160;28;19949;-93
2023/09/12 02:11:04;;;;;;;;;;;;;;;23.89;40.21;101218.63;5077048;28;19916;-93
2023/09/12 02:13:29;;;;;;;;;;;;;;;23.82;40.40;101219.09;5078276;28;19923;-94
2023/09/12 02:16:03;;;;;;;;;;;;;;;23.77;40.27;101208.34;5076797;28;19920;-92
2023/09/12 02:18:28;;;;;;;;;;;;;;;23.76;40.42;101209.47;5074272;28;19942;-93
2023/09/12 02:20:57;;;;;;;;;;;;;;;23.77;40.35;101208.34;5079129;28;20449;-92
2023/09/12 02:23:23;;;;;;;;;;;;;;;23.75;40.16;101211.41;5079109;28;19927;-93
2023/09/12 02:25:48;;;;;;;;;;;;;;;23.73;40.32;101215.59;5076633;28;19921;-93
2023/09/12 02:28:14;;;;;;;;;;;;;;;23.69;40.24;101212.69;5074731;28;19956;-93
2023/09/12 02:30:40;;;;;;;;;;;;;;;23.67;40.38;101214.13;5077212;28;20450;-93
2023/09/12 02:33:05;;;;;;;;;;;;;;;23.61;40.28;101205.31;5075666;28;19924;-93
2023/09/12 02:35:31;;;;;;;;;;;;;;;23.57;40.37;101209.81;5077876;28;19939;-93
2023/09/12 02:37:56;;;;;;;;;;;;;;;23.53;40.41;101211.56;5076802;28;19961;-93
2023/09/12 02:40:22;;;;;;;;;;;;;;;23.52;40.74;101209.97;5078308;28;20035;-93
2023/09/12 02:42:47;;;;;;;;;;;;;;;23.49;40.71;101208.66;5078348;28;20394;-93
2023/09/12 02:45:15;;;;;;;;;;;;;;;23.47;40.67;101212.84;5076679;28;21341;-93
2023/09/12 02:47:43;;;;;;;;;;;;;;;23.45;40.56;101204.97;5076982;28;20303;-93
2023/09/12 02:50:08;;;;;;;;;;;;;;;23.44;40.57;101206.09;5078755;28;20202;-94
2023/09/12 02:52:37;;;;;;;;;;;;;;;23.43;40.69;101198.22;5078251;28;19917;-93
2023/09/12 02:55:02;;;;;;;;;;;;;;;23.40;40.67;101204.34;5073094;28;20093;-93
2023/09/12 02:57:28;;;;;;;;;;;;;;;23.38;40.63;101206.59;5074701;28;19970;-93
2023/09/12 02:59:55;;;;;;;;;;;;;;;23.33;40.78;101202.09;5076986;28;20388;-94
2023/09/12 03:02:21;;;;;;;;;;;;;;;23.30;40.74;101201.94;5074845;28;19916;-93
2023/09/12 03:04:48;;;;;;;;;;;;;;;23.28;40.62;101193.25;5077251;28;19920;-93
2023/09/12 03:07:14;;;;;;;;;;;;;;;23.26;40.63;101193.56;5074900;28;19931;-93
2023/09/12 03:09:39;;;;;;;;;;;;;;;23.24;40.64;101192.28;5078113;28;19917;-93
2023/09/12 03:12:05;;;;;;;;;;;;;;;23.21;40.78;101189.09;5075407;28;19932;-93
2023/09/12 03:14:30;;;;;;;;;;;;;;;23.20;40.70;101184.75;5075553;28;20395;-93
2023/09/12 03:16:58;;;;;;;;;;;;;;;23.21;40.70;101188.28;5076534;28;19923;-93
2023/09/12 03:19:26;;;;;;;;;;;;;;;23.18;40.82;101180.72;5076966;28;19947;-91
2023/09/12 03:21:54;;;;;;;;;;;;;;;23.15;40.90;101181.34;5080302;28;19920;-93
2023/09/12 03:24:21;;;;;;;;;;;;;;;23.11;40.81;101174.91;5091809;28;19923;-93
2023/09/12 03:26:46;;;;;;;;;;;;;;;23.07;40.89;101172.03;5083645;28;20451;-94
2023/09/12 03:29:11;;;;;;;;;;;;;;;23.04;40.81;101172.69;5079001;28;19927;-93
2023/09/12 03:31:40;;;;;;;;;;;;;;;23.03;40.89;101171.06;5078464;28;19916;-93
2023/09/12 03:34:05;;;;;;;;;;;;;;;23.03;40.88;101167.53;5073439;28;20309;-93
2023/09/12 03:36:30;;;;;;;;;;;;;;;22.99;40.96;101158.38;5072024;28;19923;-93
2023/09/12 03:38:56;;;;;;;;;;;;;;;22.94;41.02;101164.00;5069725;28;19923;-93
2023/09/12 03:41:25;;;;;;;;;;;;;;;22.88;41.31;101158.69;5073346;28;19920;-93
2023/09/12 03:43:56;;;;;;;;;;;;;;;22.88;41.11;101166.09;5074295;28;19923;-92
2023/09/12 03:46:22;;;;;;;;;;;;;;;22.88;40.89;101157.88;5075633;28;19931;-93
2023/09/12 03:48:50;;;;;;;;;;;;;;;22.89;40.97;101160.31;5073870;28;19916;-93
2023/09/12 03:51:15;;;;;;;;;;;;;;;22.91;40.82;101168.97;5074891;28;19924;-92
2023/09/12 03:53:40;;;;;;;;;;;;;;;22.90;40.84;101163.84;5076934;28;20368;-94
2023/09/12 03:56:06;;;;;;;;;;;;;;;22.88;41.06;101171.56;5075654;28;19995;-93
2023/09/12 03:58:31;;;;;;;;;;;;;;;22.85;40.90;101164.00;5079505;28;19935;-93
2023/09/12 04:00:57;;;;;;;;;;;;;;;22.84;41.04;101168.66;5078430;28;19926;-94
2023/09/12 04:03:22;;;;;;;;;;;;;;;22.81;41.20;101179.41;5076716;28;20276;-94
2023/09/12 04:05:48;;;;;;;;;;;;;;;22.81;41.01;101182.13;5074462;28;19932;-93
2023/09/12 04:08:23;;;;;;;;;;;;;;;;;;;;;
2023/09/12 04:10:49;;;;;;;;;;;;;;;22.77;41.15;101178.41;5074740;28;19924;-94
2023/09/12 04:13:14;;;;;;;;;;;;;;;22.73;41.20;101178.25;5074606;28;19939;-94
2023/09/12 04:15:40;;;;;;;;;;;;;;;22.70;41.19;101178.88;5076670;28;19924;-93
2023/09/12 04:18:05;;;;;;;;;;;;;;;22.68;41.39;101180.34;5070763;28;20379;-93
2023/09/12 04:20:32;;;;;;;;;;;;;;;22.65;41.36;101180.97;5072878;28;19992;-93
2023/09/12 04:22:57;;;;;;;;;;;;;;;22.63;41.45;101178.56;5072422;28;19999;-94
2023/09/12 04:25:23;;;;;;;;;;;;;;;22.61;41.44;101192.50;5075262;28;20031;-93
2023/09/12 04:27:48;;;;;;;;;;;;;;;22.61;41.56;101183.50;5073852;28;19924;-94
2023/09/12 04:30:14;;;;;;;;;;;;;;;22.58;41.43;101190.41;5072618;28;20156;-94
2023/09/12 04:32:39;;;;;;;;;;;;;;;22.58;41.47;101192.34;5073372;28;19920;-93
2023/09/12 04:35:05;;;;;;;;;;;;;;;22.56;41.47;101195.41;5072515;28;19960;-93
2023/09/12 04:37:30;;;;;;;;;;;;;;;22.56;41.36;101195.41;5079624;28;19924;-91
2023/09/12 04:39:56;;;;;;;;;;;;;;;22.57;41.11;101202.47;5074130;28;20027;-93
2023/09/12 04:42:22;;;;;;;;;;;;;;;22.58;41.49;101201.34;5073529;28;19950;-94
2023/09/12 04:44:48;;;;;;;;;;;;;;;22.58;41.74;101204.06;5071732;28;19935;-93
2023/09/12 04:47:13;;;;;;;;;;;;;;;22.53;41.63;101206.97;5071571;28;19915;-93
2023/09/12 04:49:39;;;;;;;;;;;;;;;22.47;41.70;101202.78;5071557;28;19916;-93
2023/09/12 04:52:05;;;;;;;;;;;;;;;22.46;41.79;101201.19;5072568;28;20003;-93
2023/09/12 04:54:31;;;;;;;;;;;;;;;22.48;41.83;101203.59;5075598;28;19916;-93
2023/09/12 04:56:57;;;;;;;;;;;;;;;22.49;41.80;101202.47;5071793;28;19927;-93
2023/09/12 04:59:22;;;;;;;;;;;;;;;22.50;42.05;101191.22;5071394;28;19923;-92
2023/09/12 05:01:48;;;;;;;;;;;;;;;22.51;41.80;101195.56;5076551;28;19927;-93
2023/09/12 05:04:13;;;;;;;;;;;;;;;22.53;42.02;101197.97;5072331;28;20327;-93
2023/09/12 05:06:39;;;;;;;;;;;;;;;22.53;42.02;101206.97;5074033;28;19920;-93
2023/09/12 05:09:05;;;;;;;;;;;;;;;22.55;42.11;101204.72;5072278;28;20015;-93
2023/09/12 05:11:31;;;;;;;;;;;;;;;22.53;42.34;101206.97;5076186;28;19934;-92
2023/09/12 05:13:56;;;;;;;;;;;;;;;22.54;42.27;101207.78;5071996;28;20116;-92
2023/09/12 05:16:22;;;;;;;;;;;;;;;22.57;42.34;101204.41;5077480;28;19930;-92
2023/09/12 05:18:49;;;;;;;;;;;;;;;22.61;42.18;101206.16;5073363;28;20109;-92
2023/09/12 05:21:14;;;;;;;;;;;;;;;22.69;42.40;101212.00;5070214;28;20015;-92
2023/09/12 05:23:42;;;;;;;;;;;;;;;22.74;42.29;101220.81;5074423;28;20479;-93
2023/09/12 05:26:10;;;;;;;;;;;;;;;22.79;42.41;101220.66;5073116;28;19924;-92
2023/09/12 05:28:35;;;;;;;;;;;;;;;22.86;42.51;101222.97;5070887;28;19916;-92
2023/09/12 05:31:01;;;;;;;;;;;;;;;22.93;42.50;101223.31;5070208;28;19924;-92
2023/09/12 05:33:26;;;;;;;;;;;;;;;23.00;42.63;101214.66;5073981;28;19920;-93
2023/09/12 05:35:52;;;;;;;;;;;;;;;23.06;42.82;101219.63;5072972;28;19919;-92
2023/09/12 05:38:17;;;;;;;;;;;;;;;23.13;43.09;101214.47;5070633;28;19938;-93
2023/09/12 05:40:45;;;;;;;;;;;;;;;23.21;42.88;101205.47;5074165;28;20272;-95
2023/09/12 05:43:10;;;;;;;;;;;;;;;23.31;42.88;101217.19;5070407;28;19928;-95
2023/09/12 05:45:36;;;;;;;;;;;;;;;23.43;43.12;101217.38;5076829;28;19985;-95
2023/09/12 05:48:03;;;;;;;;;;;;;;;23.53;43.16;101211.56;5070555;28;19952;-96
2023/09/12 05:50:28;;;;;;;;;;;;;;;23.60;43.09;101211.91;5087497;28;19970;-96
2023/09/12 05:52:53;;;;;;;;;;;;;;;23.68;43.35;101210.28;5082612;28;19924;-95
2023/09/12 05:55:19;;;;;;;;;;;;;;;23.78;43.34;101218.94;5086539;28;19932;-95
2023/09/12 05:57:44;;;;;;;;;;;;;;;23.89;43.48;101218.63;5076890;28;19916;-94
2023/09/12 06:00:11;;;;;;;;;;;;;;;23.98;43.60;101216.63;5076400;28;20741;-95
2023/09/12 06:02:38;;;;;;;;;;;;;;;24.09;43.53;101217.91;5075816;28;19917;-94
2023/09/12 06:05:03;;;;;;;;;;;;;;;24.19;43.59;101223.00;5074853;28;19920;-95
2023/09/12 06:07:32;;;;;;;;;;;;;;;24.32;43.55;101213.00;5070363;28;20383;-94
2023/09/12 06:09:57;;;;;;;;;;;;;;;24.45;43.33;101219.38;5081313;28;19932;-94
2023/09/12 06:12:23;;;;;;;;;;;;;;;24.52;43.37;101220.47;5079713;28;19920;-94
2023/09/12 06:14:49;;;;;;;;;;;;;;;24.63;43.34;101227.19;5079746;28;20564;-95
2023/09/12 06:17:14;;;;;;;;;;;;;;;24.76;43.04;101224.50;5075942;28;19924;-95
2023/09/12 06:19:39;;;;;;;;;;;;;;;24.87;43.25;101221.06;5073559;28;19925;-96
2023/09/12 06:22:05;;;;;;;;;;;;;;;24.99;42.70;101223.06;5073447;28;19920;-96
2023/09/12 06:24:30;;;;;;;;;;;;;;;25.08;42.73;101225.78;5078976;28;19977;-96
2023/09/12 06:27:00;;;;;;;;;;;;;;;25.18;42.59;101226.19;5080813;28;19916;-95
2023/09/12 06:29:25;;;;;;;;;;;;;;;25.26;42.55;101229.97;5077314;28;19955;-95
2023/09/12 06:31:51;;;;;;;;;;;;;;;25.34;42.38;101226.38;5079595;28;19959;-95
2023/09/12 06:34:20;;;;;;;;;;;;;;;25.43;42.33;101220.81;5075687;28;19923;-96
2023/09/12 06:36:45;;;;;;;;;;;;;;;25.52;42.06;101221.53;5077804;28;19917;-95
2023/09/12 06:39:13;;;;;;;;;;;;;;;25.59;42.05;101230.81;5076596;28;19923;-95
2023/09/12 06:41:39;;;;;;;;;;;;;;;25.71;41.98;101232.84;5075954;28;19998;-95
2023/09/12 06:44:05;;;;;;;;;;;;;;;25.84;41.85;101228.97;5080493;28;20012;-95
2023/09/12 06:46:37;;;;;;;;;;;;;;;25.97;41.84;101235.28;5080768;28;20006;-94
2023/09/12 06:49:03;;;;;;;;;;;;;;;26.10;41.75;101227.88;5077222;28;19917;-94
2023/09/12 06:51:32;;;;;;;;;;;;;;;26.27;41.67;101232.38;5082393;28;19916;-94
2023/09/12 06:53:59;;;;;;;;;;;;;;;26.43;41.37;101230.56;5082680;28;19920;-94
2023/09/12 06:58:53;;;;;;;;;;;;;;;26.71;41.39;101241.66;5121424;23;19929;-95
2023/09/12 07:01:18;;;;;;;;;;;;;;;26.83;41.25;101238.09;5025590;28;20368;-94
2023/09/12 07:03:43;;;;;;;;;;;;;;;26.97;41.25;101231.06;5027404;28;19955;-94
2023/09/12 07:06:09;;;;;;;;;;;;;;;27.12;41.28;101234.28;5033071;28;19925;-95
2023/09/12 07:08:35;;;;;;;;;;;;;;;27.26;41.19;101240.19;5034217;28;20282;-94
2023/09/12 07:11:05;;;;;;;;;;;;;;;27.39;40.96;101236.25;5034998;28;19928;-94
2023/09/12 07:13:31;;;;;;;;;;;;;;;27.55;41.03;101236.28;5033981;28;19974;-94
2023/09/12 07:15:57;;;;;;;;;;;;;;;27.72;40.75;101249.78;5047728;28;20452;-94
2023/09/12 07:18:22;;;;;;;;;;;;;;;27.87;40.96;101250.97;5033793;28;19940;-94
2023/09/12 07:20:56;;;;;;;;;;;;;;;27.98;40.87;101255.56;5033528;28;19999;-94
2023/09/12 07:23:23;;;;;;;;;;;;;;;28.13;40.48;101248.47;5033092;28;19924;-94
2023/09/12 07:25:52;;;;;;;;;;;;;;;28.26;40.26;101244.53;5035160;28;20559;-94
2023/09/12 07:28:18;;;;;;;;;;;;;;;28.41;40.01;101258.66;5048857;28;19917;-94
2023/09/12 07:30:45;;;;;;;;;;;;;;;28.54;39.92;101247.16;5035580;28;19917;-94
2023/09/12 07:33:11;;;;;;;;;;;;;;;28.70;39.67;101246.31;5028982;28;19917;-94
2023/09/12 07:35:36;;;;;;;;;;;;;;;28.84;39.71;101247.44;5031871;28;19925;-94
2023/09/12 07:38:02;;;;;;;;;;;;;;;29.01;39.50;101249.03;5031119;28;20546;-95
2023/09/12 07:40:28;;;;;;;;;;;;;;;29.19;39.39;101241.94;5031528;28;19928;-94
2023/09/12 07:42:54;;;;;;;;;;;;;;;29.35;39.27;101239.09;5030994;28;19925;-94
2023/09/12 07:45:20;;;;;;;;;;;;;;;29.49;39.07;101233.09;5033046;28;19920;-93
2023/09/12 07:47:48;;;;;;;;;;;;;;;29.65;38.50;101233.03;5034052;28;20015;-92
2023/09/12 07:50:13;;;;;;;;;;;;;;;29.81;38.32;101235.69;5032197;28;19917;-92
2023/09/12 07:52:38;;;;;;;;;;;;;;;29.95;38.17;101235.91;5018254;28;19927;-91
2023/09/12 07:55:04;;;;;;;;;;;;;;;30.10;38.01;101223.19;5024277;28;20007;-91
2023/09/12 07:57:29;;;;;;;;;;;;;;;30.25;37.84;101231.34;5021663;28;20064;-92
2023/09/12 07:59:57;;;;;;;;;;;;;;;30.36;37.74;101226.78;5025716;28;19931;-92
2023/09/12 08:02:23;;;;;;;;;;;;;;;30.51;37.69;101235.28;5021986;28;19921;-91
2023/09/12 08:04:49;;;;;;;;;;;;;;;30.67;37.69;101231.22;5022554;28;20744;-92
2023/09/12 08:07:14;;;;;;;;;;;;;;;30.79;37.62;101232.16;5020942;28;20142;-92
2023/09/12 08:09:50;;;;;;;;;;;;;;;30.90;37.62;101233.91;5022729;28;20012;-91
2023/09/12 08:12:16;;;;;;;;;;;;;;;31.08;37.41;101234.16;5026760;28;20341;-93
2023/09/12 08:14:41;;;;;;;;;;;;;;;31.18;37.56;101230.75;5026525;28;20035;-91
2023/09/12 08:17:07;;;;;;;;;;;;;;;31.26;36.90;101237.19;5024042;28;19928;-92
2023/09/12 08:19:32;;;;;;;;;;;;;;;31.41;37.12;101225.06;5026646;28;20306;-93
2023/09/12 08:21:57;;;;;;;;;;;;;;;31.57;36.64;101228.41;5032151;28;19976;-93
2023/09/12 08:24:23;;;;;;;;;;;;;;;31.73;36.88;101230.97;5025219;28;20010;-92
2023/09/12 08:26:49;;;;;;;;;;;;;;;31.89;36.36;101233.50;5027616;28;19926;-93
2023/09/12 08:29:14;;;;;;;;;;;;;;;32.03;36.14;101239.19;5032321;28;19976;-91
2023/09/12 08:31:40;;;;;;;;;;;;;;;32.15;36.12;101238.13;5026898;28;19925;-92
2023/09/12 08:34:05;;;;;;;;;;;;;;;32.25;35.81;101239.38;5026212;28;19928;-92
2023/09/12 08:36:30;;;;;;;;;;;;;;;32.34;36.07;101237.91;5026128;28;19925;-93
2023/09/12 08:38:56;;;;;;;;;;;;;;;32.42;35.94;101245.06;5040533;28;20182;-93
2023/09/12 08:41:21;;;;;;;;;;;;;;;32.55;35.94;101247.53;5025072;28;20012;-92
2023/09/12 08:43:47;;;;;;;;;;;;;;;32.69;35.62;101242.88;5020750;28;19921;-92
2023/09/12 08:46:15;;;;;;;;;;;;;;;32.85;35.51;101248.13;5021897;28;19991;-92
2023/09/12 08:48:41;;;;;;;;;;;;;;;33.00;35.06;101241.47;5026290;28;19953;-92
2023/09/12 08:51:07;;;;;;;;;;;;;;;33.13;35.27;101250.28;5025337;28;20424;-93
2023/09/12 08:53:32;;;;;;;;;;;;;;;33.24;34.94;101245.56;5025782;28;19952;-92
2023/09/12 08:55:58;;;;;;;;;;;;;;;33.38;34.88;101246.81;5023310;28;19921;-93
2023/09/12 08:58:24;;;;;;;;;;;;;;;33.52;34.50;101235.75;5023029;28;19925;-92
2023/09/12 09:00:50;;;;;;;;;;;;;;;33.69;34.09;101237.78;5025413;28;20432;-91
2023/09/12 09:03:16;;;;;;;;;;;;;;;33.87;34.42;101235.84;5024590;28;19929;-93
2023/09/12 09:05:42;;;;;;;;;;;;;;;34.04;34.08;101236.25;5019982;28;19956;-92
2023/09/12 09:08:09;;;;;;;;;;;;;;;34.19;33.61;101240.63;5035821;28;19921;-92
2023/09/12 09:10:34;;;;;;;;;;;;;;;34.35;33.28;101235.47;5023222;28;19927;-91
2023/09/12 09:12:59;;;;;;;;;;;;;;;34.48;33.48;101241.44;5024922;28;19921;-92
2023/09/12 09:15:32;;;;;;;;;;;;;;;34.63;33.25;101236.63;5026587;28;19917;-92
2023/09/12 09:18:00;;;;;;;;;;;;;;;34.81;33.03;101234.56;5022400;28;20490;-92
2023/09/12 09:20:26;;;;;;;;;;;;;;;34.95;32.59;101234.56;5019174;28;19974;-91
2023/09/12 09:23:08;;;;;;;;;;;;;;;35.11;32.66;101228.53;5020308;28;20247;-92
2023/09/12 09:25:34;;;;;;;;;;;;;;;35.28;32.65;101229.66;5023041;28;19979;-92
2023/09/12 09:28:03;;;;;;;;;;;;;;;35.46;32.47;101227.59;5021324;28;19921;-92
2023/09/12 09:30:39;;;;;;;;;;;;;;;35.63;32.06;101225.91;5026709;28;19921;-92
2023/09/12 09:33:04;;;;;;;;;;;;;;;35.78;31.59;101230.19;5021822;28;20037;-93
2023/09/12 09:35:29;;;;;;;;;;;;;;;35.91;31.80;101230.50;5021270;28;19998;-92
2023/09/12 09:37:55;;;;;;;;;;;;;;;36.01;31.39;101224.84;5018293;28;19929;-93
2023/09/12 09:40:22;;;;;;;;;;;;;;;36.13;31.71;101217.97;5022111;28;19917;-92
2023/09/12 09:42:52;;;;;;;;;;;;;;;36.28;31.16;101221.44;5021097;28;19968;-93
2023/09/12 09:45:18;;;;;;;;;;;;;;;36.43;30.74;101219.31;5019409;28;19925;-93
2023/09/12 09:47:43;;;;;;;;;;;;;;;36.59;30.62;101225.13;5020273;28;19921;-92
2023/09/12 09:50:13;;;;;;;;;;;;;;;36.73;30.61;101218.59;5021968;28;19951;-93
2023/09/12 09:52:38;;;;;;;;;;;;;;;36.93;30.40;101222.34;5019344;28;20047;-92
2023/09/12 09:55:06;;;;;;;;;;;;;;;37.12;30.23;101210.53;5022850;28;19921;-93
2023/09/12 09:57:36;;;;;;;;;;;;;;;37.32;30.04;101213.50;5019671;28;19929;-93
2023/09/12 10:00:08;;;;;;;;;;;;;;;37.49;29.43;101217.25;5017680;28;20043;-92
2023/09/12 10:02:34;;;;;;;;;;;;;;;37.58;29.70;101213.94;5021925;28;19921;-93
2023/09/12 10:05:01;;;;;;;;;;;;;;;37.66;29.67;101221.78;5019841;28;19929;-92
2023/09/12 10:07:27;;;;;;;;;;;;;;;37.78;29.44;101220.44;5021524;28;19917;-94
2023/09/12 10:09:53;;;;;;;;;;;;;;;37.88;28.95;101216.66;5028103;28;19921;-93
2023/09/12 10:12:18;;;;;;;;;;;;;;;38.00;29.20;101221.66;5021031;28;20048;-94
2023/09/12 10:14:44;;;;;;;;;;;;;;;38.10;28.68;101220.69;5023302;28;20492;-93
2023/09/12 10:17:12;;;;;;;;;;;;;;;38.22;28.63;101215.72;5024616;28;20147;-96
2023/09/12 10:19:41;;;;;;;;;;;;;;;38.29;28.29;101204.41;5029355;28;19971;-94
2023/09/12 10:22:10;;;;;;;;;;;;;;;38.40;28.42;101204.97;5030927;28;20408;-94
2023/09/12 10:24:35;;;;;;;;;;;;;;;38.55;28.35;101205.50;5022580;28;20411;-94
2023/09/12 10:27:02;;;;;;;;;;;;;;;38.67;27.94;101208.50;5023123;28;19964;-93
2023/09/12 10:29:28;;;;;;;;;;;;;;;38.75;27.55;101205.53;5020424;28;19925;-94
2023/09/12 10:31:53;;;;;;;;;;;;;;;38.85;27.67;101199.72;5029315;28;19921;-93
2023/09/12 10:34:20;;;;;;;;;;;;;;;38.99;27.67;101193.03;5049207;28;20223;-93
2023/09/12 10:36:46;;;;;;;;;;;;;;;39.09;27.34;101194.03;5033274;28;19917;-93
2023/09/12 10:39:12;;;;;;;;;;;;;;;39.20;27.02;101181.38;5032272;28;19921;-93
2023/09/12 10:41:41;;;;;;;;;;;;;;;39.28;26.74;101174.38;5049859;28;20476;-92
2023/09/12 10:44:12;;;;;;;;;;;;;;;39.42;26.92;101175.28;5045556;28;20003;-92
2023/09/12 10:46:38;;;;;;;;;;;;;;;39.57;27.09;101179.34;5030023;28;19925;-93
2023/09/12 10:49:08;;;;;;;;;;;;;;;39.71;26.51;101175.41;5033336;28;20420;-92
2023/09/12 10:51:34;;;;;;;;;;;;;;;39.86;26.86;101177.41;5033997;28;19917;-95
2023/09/12 10:54:00;;;;;;;;;;;;;;;40.04;26.57;101173.38;5033470;28;19928;-90
2023/09/12 10:56:32;;;;;;;;;;;;;;;40.17;26.21;101177.03;5030827;28;19917;-93
2023/09/12 10:59:10;;;;;;;;;;;;;;;40.30;26.01;101171.47;5024678;28;20022;-92
2023/09/12 11:01:36;;;;;;;;;;;;;;;40.39;25.49;101175.22;5028036;28;19941;-92
2023/09/12 11:04:27;;;;;;;;;;;;;;;40.50;24.76;101179.78;5034426;28;19916;-91
2023/09/12 11:06:52;;;;;;;;;;;;;;;40.47;23.86;101185.06;5038421;28;19928;-96
2023/09/12 11:09:19;;;;;;;;;;;;;;;40.29;24.49;101181.91;5031289;28;19921;-87
2023/09/12 11:11:48;;;;;;;;;;;;;;;40.07;24.91;101178.91;5027317;28;19928;-88
2023/09/12 11:14:15;;;;;;;;;;;;;;;39.92;24.43;101188.09;5027516;28;19917;-87
2023/09/12 11:16:40;;;;;;;;;;;;;;;39.80;25.04;101181.97;5021668;28;19917;-89
2023/09/12 11:19:15;;;;;;;;;;;;;;;39.57;25.08;101179.34;5026641;28;19927;-89
2023/09/12 11:21:45;;;;;;;;;;;;;;;39.35;25.29;101178.25;5023100;28;19921;-86
2023/09/12 11:24:11;;;;;;;;;;;;;;;39.25;25.31;101180.84;5026956;28;19924;-88
2023/09/12 11:26:52;;;;;;;;;;;;;;;39.35;25.44;101192.28;5032588;28;19943;-88
2023/09/12 11:29:17;;;;;;;;;;;;;;;39.44;25.28;101192.44;5024738;28;19947;-87
2023/09/12 11:31:51;;;;;;;;;;;;;;;39.51;25.37;101189.50;5025710;28;19917;-87
2023/09/12 11:34:16;;;;;;;;;;;;;;;39.61;25.31;101180.03;5027060;28;19917;-86
2023/09/12 11:36:42;;;;;;;;;;;;;;;39.81;25.19;101171.53;5025611;28;19983;-87
2023/09/12 11:39:28;;;;;;;;;;;;;;;40.01;24.98;101177.06;5023369;28;20377;-87
2023/09/12 11:41:55;;;;;;;;;;;;;;;40.22;24.73;101172.88;5020153;28;19921;-87
2023/09/12 11:44:21;;;;;;;;;;;;;;;40.37;24.67;101169.25;5020486;28;19971;-87
2023/09/12 11:46:50;;;;;;;;;;;;;;;40.52;24.40;101163.25;5020560;28;19925;-89
2023/09/12 11:49:16;;;;;;;;;;;;;;;40.64;24.48;101168.94;5020305;28;19921;-88
2023/09/12 11:51:51;;;;;;;;;;;;;;;40.77;24.08;101174.59;5022146;28;19924;-89
2023/09/12 11:54:26;;;;;;;;;;;;;;;40.87;24.17;101175.50;5023854;28;19917;-90
2023/09/12 11:56:56;;;;;;;;;;;;;;;41.01;23.57;101167.44;5018881;28;19921;-89
2023/09/12 11:59:24;;;;;;;;;;;;;;;41.11;23.66;101161.94;5021815;28;19987;-91
2023/09/12 12:01:50;;;;;;;;;;;;;;;41.22;23.42;101163.16;5023385;28;19925;-91
2023/09/12 12:04:15;;;;;;;;;;;;;;;41.24;23.93;101162.75;5021292;28;19927;-89
2023/09/12 12:06:41;;;;;;;;;;;;;;;41.12;23.14;101153.06;5021827;28;20405;-88
2023/09/12 12:09:06;;;;;;;;;;;;;;;41.01;23.75;101158.22;5015023;28;19988;-89
2023/09/12 12:11:32;;;;;;;;;;;;;;;40.83;23.67;101158.75;5021953;28;19921;-86
2023/09/12 12:13:57;;;;;;;;;;;;;;;40.71;23.86;101156.69;5023524;28;20076;-87
2023/09/12 12:16:25;;;;;;;;;;;;;;;40.65;23.59;101153.66;5022860;28;19924;-85
2023/09/12 12:18:54;;;;;;;;;;;;;;;40.69;23.81;101153.53;5018125;28;20831;-86
2023/09/12 12:21:20;;;;;;;;;;;;;;;40.66;23.83;101154.44;5036393;28;19971;-85
2023/09/12 12:23:45;;;;;;;;;;;;;;;40.55;23.77;101148.34;5013954;28;20041;-85
2023/09/12 12:26:10;;;;;;;;;;;;;;;40.41;23.76;101147.53;5021008;28;20044;-85
2023/09/12 12:28:36;;;;;;;;;;;;;;;40.30;23.89;101143.41;5019756;28;19928;-85
2023/09/12 12:31:01;;;;;;;;;;;;;;;40.18;24.13;101147.72;5024054;28;20051;-85
2023/09/12 12:33:27;;;;;;;;;;;;;;;40.09;24.10;101144.78;5020272;28;19929;-84
2023/09/12 12:36:04;;;;;;;;;;;;;;;39.99;24.14;101141.03;5025893;28;19960;-86
2023/09/12 12:38:37;;;;;;;;;;;;;;;39.92;24.27;101140.41;5024431;28;20319;-84